.
WxDataArchive / Data Records for 2011-02-14
2011-02-13 February 2011 2011-02-15

Data Records for Monday, 14 February 2011

Time	Temp	Chill	HIndex	Humid	Dewpt	 Wind 	HiWind	WindDir	Rain 	Barom 
-----	----	-----	------	-----	-----	------	------	-------	-----	----- 
00:00	47.1	43.7	47.1	51	29.9	7	15	248	0.00	29.554 
00:05	47.0	44.1	47.0	51	29.8	6	14	248	0.00	29.554 
00:10	46.7	43.7	46.7	52	30.0	6	12	270	0.00	29.554 
00:15	46.5	43.5	46.5	53	30.3	6	13	248	0.00	29.551 
00:20	46.2	43.1	46.2	54	30.5	6	15	248	0.00	29.551 
00:25	46.0	42.9	46.0	54	30.3	6	15	248	0.00	29.551 
00:30	46.0	42.4	46.0	54	30.3	7	14	248	0.00	29.542 
00:35	46.0	42.4	46.0	54	30.3	7	15	270	0.00	29.542 
00:40	45.8	42.7	45.8	54	30.1	6	14	270	0.00	29.542 
00:45	45.7	42.5	45.7	55	30.5	6	15	248	0.00	29.547 
00:50	45.5	42.3	45.5	55	30.3	6	13	248	0.00	29.547 
00:55	45.4	42.2	45.4	55	30.2	6	14	248	0.00	29.547 
01:00	45.2	42.6	45.2	55	30.0	5	13	248	0.00	29.558 
01:05	45.4	41.6	45.4	55	30.2	7	19	270	0.00	29.558 
01:10	45.2	42.6	45.2	55	30.0	5	10	248	0.00	29.558 
01:15	45.2	42.0	45.2	55	30.0	6	15	248	0.00	29.557 
01:20	45.4	42.2	45.4	54	29.7	6	17	270	0.00	29.557 
01:25	45.4	42.2	45.4	54	29.7	6	15	270	0.00	29.557 
01:30	45.4	42.2	45.4	54	29.7	6	13	270	0.00	29.569 
01:35	45.4	41.6	45.4	54	29.7	7	15	248	0.00	29.569 
01:40	45.4	42.2	45.4	54	29.7	6	17	270	0.00	29.569 
01:45	45.1	42.5	45.1	54	29.5	5	15	270	0.00	29.578 
01:50	44.8	40.9	44.8	55	29.6	7	16	270	0.00	29.578 
01:55	44.8	41.5	44.8	54	29.2	6	15	248	0.00	29.578 
02:00	44.6	41.2	44.6	55	29.4	6	14	248	0.00	29.574 
02:05	44.5	41.8	44.5	55	29.3	5	13	270	0.00	29.574 
02:10	44.3	40.9	44.3	55	29.2	6	12	270	0.00	29.574 
02:15	44.2	41.4	44.2	55	29.1	5	12	248	0.00	29.576 
02:20	44.1	41.3	44.1	55	29.0	5	12	248	0.00	29.576 
02:25	44.2	40.8	44.2	55	29.1	6	13	270	0.00	29.576 
02:30	44.1	40.6	44.1	55	29.0	6	16	248	0.00	29.579 
02:35	43.9	41.1	43.9	55	28.8	5	17	248	0.00	29.579 
02:40	43.9	40.4	43.9	55	28.8	6	13	270	0.00	29.579 
02:45	43.8	40.9	43.8	56	29.1	5	11	248	0.00	29.578 
02:50	43.5	40.6	43.5	56	28.9	5	13	248	0.00	29.578 
02:55	43.5	39.9	43.5	56	28.9	6	17	248	0.00	29.578 
03:00	43.3	40.3	43.3	57	29.1	5	13	248	0.00	29.577 
03:05	43.2	39.6	43.2	57	29.0	6	13	248	0.00	29.577 
03:10	43.1	40.1	43.1	57	28.9	5	13	270	0.00	29.577 
03:15	42.8	39.1	42.8	58	29.1	6	13	248	0.00	29.577 
03:20	42.6	38.9	42.6	58	28.9	6	18	270	0.00	29.577 
03:25	42.5	38.7	42.5	59	29.2	6	13	270	0.00	29.577 
03:30	42.2	38.4	42.2	59	28.9	6	15	270	0.00	29.578 
03:35	41.9	38.0	41.9	60	29.0	6	11	248	0.00	29.578 
03:40	41.8	37.9	41.8	61	29.4	6	11	270	0.00	29.578 
03:45	41.5	39.1	41.5	61	29.1	4	9	248	0.00	29.576 
03:50	41.3	38.0	41.3	62	29.3	5	12	248	0.00	29.576 
03:55	41.2	37.9	41.2	62	29.2	5	12	270	0.00	29.576 
04:00	40.9	37.5	40.9	63	29.3	5	13	248	0.00	29.574 
04:05	40.8	37.4	40.8	63	29.2	5	12	248	0.00	29.574 
04:10	40.8	36.7	40.8	64	29.6	6	12	270	0.00	29.574 
04:15	40.6	37.2	40.6	64	29.4	5	9	248	0.00	29.579 
04:20	40.5	36.4	40.5	64	29.3	6	17	270	0.00	29.579 
04:25	40.6	36.5	40.6	64	29.4	6	14	270	0.00	29.579 
04:30	40.6	36.5	40.6	64	29.4	6	12	270	0.00	29.586 
04:35	40.5	36.4	40.5	65	29.7	6	14	270	0.00	29.586 
04:40	40.3	35.5	40.3	65	29.5	7	16	270	0.00	29.586 
04:45	40.2	36.0	40.2	65	29.4	6	12	270	0.00	29.591 
04:50	40.1	36.6	40.1	65	29.3	5	9	270	0.00	29.591 
04:55	39.9	36.4	39.9	66	29.5	5	9	248	0.00	29.591 
05:00	39.8	36.2	39.8	67	29.8	5	9	270	0.00	29.608 
05:05	39.8	36.2	39.8	67	29.8	5	11	270	0.00	29.608 
05:10	39.6	36.0	39.6	67	29.6	5	9	270	0.00	29.608 
05:15	39.6	36.9	39.6	68	29.9	4	7	270	0.00	29.630 
05:20	39.6	36.0	39.6	68	29.9	5	10	270	0.00	29.630 
05:25	39.6	36.0	39.6	68	29.9	5	10	270	0.00	29.630 
05:30	39.6	36.0	39.6	68	29.9	5	10	270	0.00	29.649 
05:35	39.6	36.0	39.6	68	29.9	5	13	270	0.00	29.649 
05:40	39.6	36.9	39.6	69	30.3	4	7	270	0.00	29.649 
05:45	39.6	36.9	39.6	69	30.3	4	8	270	0.00	29.663 
05:50	39.6	36.9	39.6	69	30.3	4	9	270	0.00	29.663 
05:55	39.6	36.9	39.6	69	30.3	4	9	270	0.00	29.663 
06:00	39.8	37.1	39.8	69	30.5	4	10	270	0.00	29.676 
06:05	39.8	37.1	39.8	69	30.5	4	9	270	0.00	29.676 
06:10	39.8	37.1	39.8	69	30.5	4	7	248	0.00	29.676 
06:15	39.9	37.2	39.9	69	30.6	4	8	270	0.00	29.682 
06:20	39.8	37.1	39.8	69	30.5	4	6	270	0.00	29.682 
06:25	39.8	37.1	39.8	69	30.5	4	9	248	0.00	29.682 
06:30	39.6	36.9	39.6	69	30.3	4	6	270	0.00	29.682 
06:35	39.6	36.9	39.6	69	30.3	4	9	270	0.00	29.682 
06:40	39.6	36.9	39.6	69	30.3	4	9	270	0.00	29.682 
06:45	39.5	36.7	39.5	69	30.2	4	7	270	0.00	29.691 
06:50	39.5	36.7	39.5	70	30.5	4	7	248	0.00	29.691 
06:55	39.5	39.5	39.5	70	30.5	3	7	270	0.00	29.691 
07:00	39.5	39.5	39.5	70	30.5	3	7	270	0.00	29.704 
07:05	39.3	36.5	39.3	70	30.3	4	11	248	0.00	29.704 
07:10	39.3	39.3	39.3	71	30.7	3	8	270	0.00	29.704 
07:15	39.2	39.2	39.2	71	30.6	3	6	270	0.00	29.711 
07:20	39.2	36.4	39.2	71	30.6	4	7	248	0.00	29.711 
07:25	39.1	36.3	39.1	71	30.5	4	9	270	0.00	29.711 
07:30	39.1	36.3	39.1	72	30.8	4	6	270	0.00	29.721 
07:35	39.1	39.1	39.1	72	30.8	3	10	270	0.00	29.721 
07:40	39.1	36.3	39.1	72	30.8	4	11	270	0.00	29.721 
07:45	38.9	36.0	38.9	72	30.7	4	7	248	0.00	29.728 
07:50	38.8	38.8	38.8	72	30.6	3	7	248	0.00	29.728 
07:55	38.8	38.8	38.8	73	30.9	3	7	248	0.00	29.728 
08:00	38.6	38.6	38.6	73	30.7	3	7	248	0.00	29.737 
08:05	38.6	35.7	38.6	73	30.7	4	9	270	0.00	29.737 
08:10	38.6	35.7	38.6	73	30.7	4	11	248	0.00	29.737 
08:15	38.6	38.6	38.6	73	30.7	3	9	270	0.00	29.740 
08:20	38.5	38.5	38.5	74	30.9	3	7	248	0.00	29.740 
08:25	38.6	38.6	38.6	74	31.0	3	7	270	0.00	29.740 
08:30	38.6	38.6	38.6	74	31.0	3	6	270	0.00	29.752 
08:35	38.5	38.5	38.5	74	30.9	3	6	248	0.00	29.752 
08:40	38.6	35.7	38.6	74	31.0	4	11	270	0.00	29.752 
08:45	38.5	35.6	38.5	74	30.9	4	5	270	0.00	29.760 
08:50	38.6	38.6	38.6	74	31.0	3	5	270	0.00	29.760 
08:55	38.6	35.7	38.6	74	31.0	4	12	270	0.00	29.760 
09:00	38.6	35.7	38.6	74	31.0	4	7	248	0.00	29.776 
09:05	38.6	35.7	38.6	74	31.0	4	9	292	0.00	29.776 
09:10	38.5	35.6	38.5	75	31.3	4	6	270	0.00	29.776 
09:15	38.5	35.6	38.5	77	31.9	4	6	270	0.00	29.790 
09:20	38.5	38.5	38.5	75	31.3	3	7	248	0.00	29.790 
09:25	38.5	38.5	38.5	75	31.3	3	5	270	0.00	29.790 
09:30	38.5	35.6	38.5	75	31.3	4	9	270	0.00	29.799 
09:35	38.6	35.7	38.6	75	31.4	4	7	248	0.00	29.799 
09:40	38.8	38.8	38.8	75	31.6	3	6	270	0.00	29.799 
09:45	38.8	38.8	38.8	75	31.6	3	5	270	0.00	29.803 
09:50	38.9	38.9	38.9	74	31.3	3	5	270	0.00	29.803 
09:55	38.9	38.9	38.9	74	31.3	3	6	248	0.00	29.803 
10:00	39.2	39.2	39.2	74	31.6	3	5	270	0.00	29.814 
10:05	39.3	36.5	39.3	73	31.4	4	7	270	0.00	29.814 
10:10	39.6	39.6	39.6	73	31.7	3	6	270	0.00	29.814 
10:15	39.6	36.9	39.6	73	31.7	4	9	315	0.00	29.825 
10:20	39.8	37.1	39.8	72	31.5	4	7	270	0.00	29.825 
10:25	39.8	37.1	39.8	72	31.5	4	8	270	0.00	29.825 
10:30	39.9	37.2	39.9	72	31.6	4	7	270	0.00	29.837 
10:35	39.9	37.2	39.9	72	31.6	4	9	270	0.00	29.837 
10:40	39.8	39.8	39.8	72	31.5	3	9	270	0.00	29.837 
10:45	39.9	37.2	39.9	72	31.6	4	10	270	0.00	29.852 
10:50	39.9	37.2	39.9	72	31.6	4	7	270	0.00	29.852 
10:55	40.1	40.1	40.1	72	31.8	3	10	315	0.00	29.852 
11:00	40.2	40.2	40.2	72	31.9	3	6	270	0.00	29.874 
11:05	40.3	40.3	40.3	71	31.7	3	7	315	0.00	29.874 
11:10	40.6	38.0	40.6	70	31.6	4	9	270	0.00	29.874 
11:15	40.8	38.2	40.8	69	31.4	4	7	270	0.00	29.890 
11:20	41.1	41.1	41.1	68	31.4	3	7	270	0.00	29.890 
11:25	41.3	41.3	41.3	67	31.2	3	11	315	0.00	29.890 
11:30	41.3	38.8	41.3	66	30.8	4	10	270	0.00	29.907 
11:35	41.5	41.5	41.5	66	31.0	3	9	270	0.00	29.907 
11:40	41.6	41.6	41.6	65	30.7	3	7	270	0.00	29.907 
11:45	41.5	39.1	41.5	64	30.2	4	16	338	0.00	29.921 
11:50	41.5	41.5	41.5	63	29.9	3	10	338	0.00	29.921 
11:55	41.6	39.2	41.6	63	30.0	4	9	270	0.00	29.921 
12:00	42.1	42.1	42.1	61	29.6	3	9	292	0.00	29.926 
12:05	42.3	40.0	42.3	60	29.4	4	7	338	0.00	29.926 
12:10	42.3	39.2	42.3	58	28.6	5	11	270	0.00	29.926 
12:15	41.9	38.7	41.9	57	27.8	5	12	270	0.00	29.942 
12:20	42.1	38.9	42.1	56	27.5	5	12	292	0.00	29.942 
12:25	41.9	38.0	41.9	55	26.9	6	12	292	0.00	29.942 
12:30	41.8	38.6	41.8	56	27.3	5	12	292	0.00	29.956 
12:35	41.6	39.2	41.6	56	27.1	4	7	270	0.00	29.956 
12:40	41.9	39.5	41.9	56	27.4	4	12	338	0.00	29.956 
12:45	42.1	42.1	42.1	56	27.5	3	10	292	0.00	29.960 
12:50	42.1	42.1	42.1	56	27.5	3	10	270	0.00	29.960 
12:55	41.6	38.4	41.6	56	27.1	5	12	315	0.00	29.960 
13:00	41.5	39.1	41.5	57	27.4	4	12	315	0.00	29.970 
13:05	41.6	39.2	41.6	57	27.5	4	15	270	0.00	29.970 
13:10	41.6	38.4	41.6	57	27.5	5	14	315	0.00	29.970 
13:15	41.3	41.3	41.3	58	27.7	3	13	292	0.00	29.974 
13:20	41.3	38.8	41.3	58	27.7	4	9	338	0.00	29.974 
13:25	41.1	37.8	41.1	57	27.0	5	12	270	0.00	29.974 
13:30	40.9	38.4	40.9	58	27.3	4	10	292	0.00	29.988 
13:35	41.1	41.1	41.1	57	27.0	3	9	315	0.00	29.988 
13:40	41.2	41.2	41.2	57	27.1	3	6	292	0.00	29.988 
13:45	41.1	38.6	41.1	57	27.0	4	11	292	0.00	29.996 
13:50	41.2	38.7	41.2	57	27.1	4	10	270	0.00	29.996 
13:55	41.3	41.3	41.3	57	27.2	3	9	315	0.00	29.996 
14:00	40.6	38.0	40.6	58	27.0	4	11	315	0.00	30.012 
14:05	40.2	37.5	40.2	58	26.6	4	10	292	0.00	30.012 
14:10	39.9	37.2	39.9	59	26.7	4	8	292	0.00	30.012 
14:15	40.1	40.1	40.1	60	27.3	3	7	292	0.00	30.031 
14:20	40.1	37.4	40.1	60	27.3	4	16	338	0.00	30.031 
14:25	39.9	37.2	39.9	60	27.2	4	10	315	0.00	30.031 
14:30	40.1	37.4	40.1	59	26.9	4	9	315	0.00	30.050 
14:35	39.9	39.9	39.9	59	26.7	3	8	292	0.00	30.050 
14:40	39.6	36.9	39.6	60	26.9	4	7	292	0.00	30.050 
14:45	40.1	40.1	40.1	59	26.9	3	9	315	0.00	30.056 
14:50	40.1	37.4	40.1	59	26.9	4	8	270	0.00	30.056 
14:55	40.1	40.1	40.1	60	27.3	3	7	270	0.00	30.056 
15:00	39.6	36.9	39.6	59	26.5	4	11	292	0.00	30.070 
15:05	39.2	36.4	39.2	59	26.1	4	7	315	0.00	30.070 
15:10	39.2	35.5	39.2	58	25.7	5	13	248	0.00	30.070 
15:15	38.8	35.1	38.8	59	25.7	5	10	270	0.00	30.085 
15:20	38.8	35.9	38.8	59	25.7	4	11	270	0.00	30.085 
15:25	38.9	35.2	38.9	58	25.4	5	10	270	0.00	30.085 
15:30	38.8	35.9	38.8	58	25.3	4	9	270	0.00	30.099 
15:35	38.6	34.8	38.6	58	25.1	5	10	270	0.00	30.099 
15:40	38.8	38.8	38.8	58	25.3	3	10	315	0.00	30.099 
15:45	38.8	38.8	38.8	58	25.3	3	8	292	0.00	30.104 
15:50	38.9	38.9	38.9	59	25.8	3	6	315	0.00	30.104 
15:55	39.1	39.1	39.1	58	25.6	3	7	248	0.00	30.104 
16:00	39.1	39.1	39.1	58	25.6	3	6	270	0.00	30.116 
16:05	38.9	36.0	38.9	59	25.8	4	9	292	0.00	30.116 
16:10	38.9	38.9	38.9	59	25.8	3	6	270	0.00	30.116 
16:15	39.1	39.1	39.1	59	26.0	3	7	248	0.00	30.126 
16:20	38.9	38.9	38.9	59	25.8	3	9	270	0.00	30.126 
16:25	38.8	38.8	38.8	59	25.7	3	7	270	0.00	30.126 
16:30	38.6	38.6	38.6	58	25.1	3	6	270	0.00	30.140 
16:35	38.3	38.3	38.3	58	24.8	3	5	292	0.00	30.140 
16:40	38.0	35.0	38.0	58	24.6	4	7	315	0.00	30.140 
16:45	37.9	37.9	37.9	58	24.5	3	7	270	0.00	30.149 
16:50	37.8	37.8	37.8	58	24.4	3	9	315	0.00	30.149 
16:55	37.8	37.8	37.8	59	24.8	2	5	338	0.00	30.149 
17:00	37.9	37.9	37.9	58	24.5	2	5	270	0.00	30.156 
17:05	37.6	37.6	37.6	59	24.6	2	7	315	0.00	30.156 
17:10	37.5	37.5	37.5	59	24.5	1	3	315	0.00	30.156 
17:15	37.5	37.5	37.5	58	24.1	2	4	270	0.00	30.164 
17:20	37.3	34.2	37.3	58	23.9	4	7	270	0.00	30.164 
17:25	37.0	37.0	37.0	58	23.6	3	12	315	0.00	30.164 
17:30	36.9	36.9	36.9	57	23.1	3	7	248	0.00	30.172 
17:35	36.8	36.8	36.8	58	23.4	3	5	248	0.00	30.172 
17:40	36.5	36.5	36.5	58	23.1	2	5	315	0.00	30.172 
17:45	36.5	36.5	36.5	58	23.1	2	5	315	0.00	30.181 
17:50	36.2	36.2	36.2	59	23.3	2	5	292	0.00	30.181 
17:55	36.0	36.0	36.0	59	23.1	2	5	338	0.00	30.181 
18:00	35.9	35.9	35.9	60	23.4	1	4	338	0.00	30.196 
18:05	35.8	35.8	35.8	60	23.3	1	5	292	0.00	30.196 
18:10	35.6	35.6	35.6	61	23.5	1	3	315	0.00	30.196 
18:15	35.3	35.3	35.3	60	22.8	1	5	292	0.00	30.203 
18:20	35.2	35.2	35.2	61	23.1	2	6	270	0.00	30.203 
18:25	35.0	35.0	35.0	61	22.9	1	3	270	0.00	30.203 
18:30	34.9	34.9	34.9	61	22.8	2	6	292	0.00	30.215 
18:35	34.7	34.7	34.7	62	23.0	1	4	270	0.00	30.215 
18:40	34.6	34.6	34.6	62	22.9	1	4	338	0.00	30.215 
18:45	34.4	34.4	34.4	62	22.7	2	3	338	0.00	30.221 
18:50	34.3	34.3	34.3	62	22.7	1	3	338	0.00	30.221 
18:55	34.1	34.1	34.1	62	22.5	1	3	292	0.00	30.221 
19:00	34.0	34.0	34.0	63	22.7	1	3	315	0.00	30.235 
19:05	33.8	33.8	33.8	63	22.6	1	4	248	0.00	30.235 
19:10	33.7	33.7	33.7	64	22.8	2	4	248	0.00	30.235 
19:15	33.7	33.7	33.7	64	22.8	1	4	315	0.00	30.250 
19:20	33.5	33.5	33.5	64	22.6	1	4	315	0.00	30.250 
19:25	33.4	33.4	33.4	64	22.6	1	3	315	0.00	30.250 
19:30	33.2	33.2	33.2	64	22.4	2	5	315	0.00	30.267 
19:35	33.1	33.1	33.1	64	22.3	1	5	292	0.00	30.267 
19:40	32.9	32.9	32.9	64	22.1	1	2	270	0.00	30.267 
19:45	32.8	32.8	32.8	64	22.0	1	3	270	0.00	30.269 
19:50	32.7	32.7	32.7	65	22.3	1	4	338	0.00	30.269 
19:55	32.5	32.5	32.5	65	22.1	1	2	338	0.00	30.269 
20:00	32.4	32.4	32.4	65	22.0	1	3	338	0.00	30.284 
20:05	32.2	32.2	32.2	65	21.8	1	4	292	0.00	30.284 
20:10	32.1	32.1	32.1	66	22.0	1	2	292	0.00	30.284 
20:15	31.9	31.9	31.9	65	21.5	1	3	248	0.00	30.297 
20:20	31.9	31.9	31.9	65	21.5	1	3	315	0.00	30.297 
20:25	31.8	31.8	31.8	65	21.4	2	3	315	0.00	30.297 
20:30	31.8	31.8	31.8	65	21.4	2	5	270	0.00	30.302 
20:35	31.6	31.6	31.6	65	21.2	2	6	270	0.00	30.302 
20:40	31.5	31.5	31.5	65	21.1	1	4	292	0.00	30.302 
20:45	31.3	31.3	31.3	66	21.3	1	3	315	0.00	30.312 
20:50	31.0	31.0	31.0	66	21.0	1	4	270	0.00	30.312 
20:55	30.9	30.9	30.9	65	20.5	2	6	292	0.00	30.312 
21:00	30.7	30.7	30.7	65	20.3	1	3	292	0.00	30.312 
21:05	30.6	30.6	30.6	65	20.3	1	4	338	0.00	30.312 
21:10	30.4	30.4	30.4	66	20.4	1	5	292	0.00	30.312 
21:15	30.1	30.1	30.1	66	20.1	1	3	292	0.00	30.318 
21:20	30.0	30.0	30.0	66	20.0	1	4	270	0.00	30.318 
21:25	29.8	29.8	29.8	67	20.2	1	4	22	0.00	30.318 
21:30	29.7	29.7	29.7	67	20.1	1	3	270	0.00	30.322 
21:35	29.5	29.5	29.5	67	19.9	1	4	270	0.00	30.322 
21:40	29.5	29.5	29.5	67	19.9	1	2	270	0.00	30.322 
21:45	29.3	29.3	29.3	67	19.7	0	2	270	0.00	30.334 
21:50	29.1	29.1	29.1	68	19.9	0	1	270	0.00	30.334 
21:55	29.0	29.0	29.0	68	19.8	0	2	270	0.00	30.334 
22:00	28.8	28.8	28.8	69	19.9	0	2	270	0.00	30.339 
22:05	28.8	28.8	28.8	69	19.9	0	2	270	0.00	30.339 
22:10	28.7	28.7	28.7	69	19.8	0	1	270	0.00	30.339 
22:15	28.5	28.5	28.5	69	19.6	0	2	270	0.00	30.343 
22:20	28.4	28.4	28.4	69	19.5	1	3	270	0.00	30.343 
22:25	28.4	28.4	28.4	69	19.5	0	3	270	0.00	30.343 
22:30	28.2	28.2	28.2	69	19.4	0	1	270	0.00	30.347 
22:35	28.1	28.1	28.1	69	19.3	0	1	270	0.00	30.347 
22:40	27.9	27.9	27.9	69	19.1	0	2	270	0.00	30.347 
22:45	27.8	27.8	27.8	69	19.0	0	1	270	0.00	30.355 
22:50	27.6	27.6	27.6	69	18.8	0	0	---	0.00	30.355 
22:55	27.5	27.5	27.5	70	19.0	0	1	270	0.00	30.355 
23:00	27.3	27.3	27.3	70	18.8	0	1	270	0.00	30.369 
23:05	27.2	27.2	27.2	70	18.7	0	0	---	0.00	30.369 
23:10	27.0	27.0	27.0	70	18.5	0	1	270	0.00	30.369 
23:15	27.0	27.0	27.0	71	18.9	0	1	270	0.00	30.368 
23:20	27.0	27.0	27.0	71	18.9	0	1	270	0.00	30.368 
23:25	26.9	26.9	26.9	71	18.8	0	1	270	0.00	30.368 
23:30	26.7	26.7	26.7	71	18.6	0	1	270	0.00	30.369 
23:35	26.6	26.6	26.6	71	18.5	0	0	---	0.00	30.369 
23:40	26.6	26.6	26.6	71	18.5	0	1	270	0.00	30.369 
23:45	26.4	26.4	26.4	71	18.3	0	1	270	0.00	30.379 
23:50	26.3	26.3	26.3	72	18.5	0	1	270	0.00	30.379 
23:55	26.1	26.1	26.1	72	18.3	0	0	---	0.00	30.379 

CoCoRaHS
IN-AL-39
A2 Web Hosting
Creative Commons License
GoDaddy
search engine by freefind advanced

loaded 2018-11-13 02:38:12 • last modified 2010-11-18 10:43:29
Privacy PolicyDisclaimer
• wx.awcolley.com is powered by PmWiki v.2002016 •
• all content (unless otherwise noted) © 2018 A W Colley